Terminal Aerodrome Forecast
Issued by NWS

Home | Current Version | Previous Version | Text Only | Print | Product List | Glossary On
Versions: 1 2 3 4 5 6 7 8 9 10
000
FTUS46 KSEW 271100
TAFBFI
TAF
KBFI 271130Z 2712/2812 14005KT P6SM -RA OVC021
     FM271300 17006KT P6SM -RA OVC016
      TEMPO 2713/2717 3SM -RA BR OVC009
     FM271800 18010G16KT P6SM -SHRA SCT015 BKN023 OVC040
     FM280400 21010KT P6SM VCSH SCT020 BKN035 OVC060
     FM281000 20007KT P6SM OVC023=

USA.gov is the U.S. government's official web portal to all federal, state and local government web resources and services.